This is the latest recevied weather packets stored in our database for station/object KD7CTY. If no packets are shown the sender has not sent any weather packets the latest 10 day(s).
| Time | Temp. | Humidity | Pressure | Rain* | Wind** | Luminosity | Snow |
|---|---|---|---|---|---|---|---|
| 1777920235 | 21.67° C | 62% | 1010.3 hPa | 0 mm | - | 850 W/m² | - |
| 1777919931 | 20.56° C | 66% | 1010.4 hPa | 0 mm | - | 842 W/m² | - |
| 1777919629 | 21.67° C | 60% | 1010.3 hPa | 0 mm | - | 798 W/m² | - |
| 1777919326 | 21.11° C | 64% | 1010.4 hPa | 0 mm | - | 827 W/m² | - |
| 1777919023 | 21.11° C | 62% | 1010.4 hPa | 0 mm | - | 832 W/m² | - |
| 1777918720 | 20.56° C | 63% | 1010.4 hPa | 0 mm | - | 809 W/m² | - |
| 1777918417 | 20.56° C | 64% | 1010.5 hPa | 0 mm | - | 800 W/m² | - |
| 1777918116 | 21.11° C | 62% | 1010.5 hPa | 0 mm | - | 817 W/m² | - |
| 1777917814 | 20.56° C | 64% | 1010.4 hPa | 0 mm | - | 836 W/m² | - |
| 1777917512 | 20° C | 65% | 1010.6 hPa | 0 mm | - | 822 W/m² | - |
| 1777917208 | 20° C | 63% | 1010.4 hPa | 0 mm | - | 809 W/m² | - |
| 1777916907 | 20° C | 66% | 1010.8 hPa | 0 mm | - | 754 W/m² | - |
| 1777916604 | 20° C | 64% | 1010.3 hPa | 0 mm | - | 739 W/m² | - |
| 1777916301 | 19.44° C | 66% | 1010.4 hPa | 0 mm | - | 747 W/m² | - |
| 1777915997 | 19.44° C | 67% | 1010.4 hPa | 0 mm | - | 719 W/m² | - |
| 1777915695 | 19.44° C | 65% | 1010.3 hPa | 0 mm | - | 764 W/m² | - |
| 1777915391 | 19.44° C | 67% | 1010.3 hPa | 0 mm | - | 760 W/m² | - |
| 1777915086 | 19.44° C | 67% | 1010.3 hPa | 0 mm | - | 740 W/m² | - |
| 1777914784 | 18.89° C | 67% | 1010.3 hPa | 0 mm | - | 709 W/m² | - |
| 1777914481 | 19.44° C | 68% | 1010.5 hPa | 0 mm | - | 665 W/m² | - |
| 1777914178 | 18.89° C | 67% | 1010.2 hPa | 0 mm | - | 646 W/m² | - |
| 1777913874 | 18.89° C | 68% | 1010.3 hPa | 0 mm | - | 573 W/m² | - |
| 1777913571 | 18.89° C | 67% | 1010.3 hPa | 0 mm | - | 605 W/m² | - |
| 1777913267 | 18.89° C | 66% | 1010.4 hPa | 0 mm | - | 601 W/m² | - |
| 1777912964 | 18.33° C | 67% | 1010.2 hPa | 0 mm | - | 567 W/m² | - |
* Rain latest hour (hover to see other rain measurements)
** Current wind speed in m/s (hover to see current wind gust speed)